Time;durP1;ratioP1;P1;durP2;ratioP2;P2;SDS_P1;SDS_P2;PMS_P1;PMS_P2;Temp;Humidity;BMP_temperature;BMP_pressure;BME280_temperature;BME280_humidity;BME280_pressure;Samples;Min_cycle;Max_cycle;Signal;HPM_P1;HPM_P2
2022/04/20 00:01:58;;;;;;;24.00;10.77;;;;;;;9.84;78.15;101784.97;4964445;28;20046;-78
2022/04/20 00:04:26;;;;;;;19.33;9.50;;;;;;;9.82;78.39;101784.03;4967385;28;20082;-77
2022/04/20 00:06:55;;;;;;;21.98;10.57;;;;;;;9.84;78.12;101779.72;4959412;28;20051;-77
2022/04/20 00:09:23;;;;;;;19.95;11.15;;;;;;;9.84;78.38;101776.22;4963116;28;20539;-77
2022/04/20 00:11:56;;;;;;;19.65;9.77;;;;;;;9.80;78.10;101779.59;4960018;28;20055;-77
2022/04/20 00:14:27;;;;;;;20.08;10.05;;;;;;;9.73;78.16;101775.00;4964850;28;20499;-77
2022/04/20 00:16:58;;;;;;;23.00;10.57;;;;;;;9.76;77.88;101769.84;4963272;28;20537;-77
2022/04/20 00:19:26;;;;;;;20.02;9.90;;;;;;;9.74;77.93;101776.78;4953923;28;20058;-78
2022/04/20 00:21:54;;;;;;;22.48;10.70;;;;;;;9.65;78.49;101779.09;4955422;28;20051;-78
2022/04/20 00:24:23;;;;;;;21.25;9.93;;;;;;;9.56;78.72;101778.81;4964516;28;20055;-77
2022/04/20 00:26:51;;;;;;;20.42;9.57;;;;;;;9.53;78.92;101787.44;4965303;28;20061;-78
2022/04/20 00:29:26;;;;;;;18.13;10.40;;;;;;;9.52;79.05;101781.31;4960991;28;20160;-77
2022/04/20 00:31:57;;;;;;;21.42;10.07;;;;;;;9.43;79.47;101778.41;4960987;28;20055;-71
2022/04/20 00:34:26;;;;;;;16.90;8.77;;;;;;;9.42;79.46;101783.59;4956776;28;20058;-71
2022/04/20 00:36:58;;;;;;;21.63;9.90;;;;;;;9.46;79.33;101782.84;4957261;28;20082;-69
2022/04/20 00:39:26;;;;;;;19.25;9.95;;;;;;;9.37;79.44;101793.91;4956085;28;20059;-69
2022/04/20 00:42:00;;;;;;;18.90;9.65;;;;;;;9.38;79.40;101787.84;4955664;28;20086;-77
2022/04/20 00:44:29;;;;;;;;;;;;;;;9.36;79.28;101793.88;4967203;28;20487;-77
2022/04/20 00:46:58;;;;;;;21.23;9.68;;;;;;;9.33;79.34;101794.69;4960410;28;19977;-71
2022/04/20 00:49:30;;;;;;;18.83;9.27;;;;;;;9.35;79.28;101799.97;4959283;28;20555;-71
2022/04/20 00:51:59;;;;;;;20.67;9.45;;;;;;;9.24;79.70;101793.47;4960208;28;20063;-71
2022/04/20 00:54:28;;;;;;;18.90;9.35;;;;;;;9.24;79.91;101798.72;4961667;28;20046;-71
2022/04/20 00:56:56;;;;;;;23.20;9.07;;;;;;;9.18;79.87;101802.91;4961758;28;20039;-71
2022/04/20 00:59:27;;;;;;;21.13;10.50;;;;;;;9.15;80.16;101794.06;4955349;28;21027;-71
2022/04/20 01:02:01;;;;;;;18.02;9.45;;;;;;;9.15;80.02;101799.28;4955309;28;20058;-70
2022/04/20 01:04:30;;;;;;;22.13;9.10;;;;;;;9.14;79.85;101800.13;4960077;28;20055;-70
2022/04/20 01:07:01;;;;;;;17.08;8.63;;;;;;;9.12;79.90;101800.06;4958352;28;20222;-70
2022/04/20 01:09:29;;;;;;;21.42;9.88;;;;;;;9.08;80.11;101797.28;4957328;28;20059;-70
2022/04/20 01:11:58;;;;;;;16.17;7.88;;;;;;;9.10;79.94;101798.25;4957798;28;20055;-78
2022/04/20 01:14:26;;;;;;;17.35;9.10;;;;;;;9.05;79.74;101795.47;4964117;28;20504;-77
2022/04/20 01:16:59;;;;;;;16.92;8.30;;;;;;;9.04;79.95;101798.91;4962121;28;20050;-77
2022/04/20 01:19:33;;;;;;;18.23;8.52;;;;;;;8.96;79.98;101803.00;4966182;28;20055;-77
2022/04/20 01:22:03;;;;;;;18.38;8.65;;;;;;;8.92;80.32;101806.34;4964765;28;20151;-78
2022/04/20 01:24:34;;;;;;;21.48;9.02;;;;;;;8.92;80.44;101801.09;4961800;28;20070;-77
2022/04/20 01:27:03;;;;;;;18.42;8.77;;;;;;;8.90;80.52;101800.16;4964824;28;20134;-70
2022/04/20 01:29:32;;;;;;;15.10;8.18;;;;;;;8.87;80.49;101799.16;4957141;28;20065;-78
2022/04/20 01:32:00;;;;;;;19.27;9.57;;;;;;;8.82;80.50;101797.28;4960246;28;20054;-78
2022/04/20 01:34:28;;;;;;;16.80;8.13;;;;;;;8.78;80.60;101794.50;4962215;28;20062;-77
2022/04/20 01:36:58;;;;;;;16.23;8.60;;;;;;;8.76;80.92;101790.94;4955376;28;20129;-71
2022/04/20 01:39:27;;;;;;;17.83;9.27;;;;;;;8.73;80.81;101799.56;4958727;28;20053;-71
2022/04/20 01:41:56;;;;;;;14.60;8.38;;;;;;;8.66;81.23;101797.56;4957637;28;20109;-71
2022/04/20 01:44:26;;;;;;;16.10;8.73;;;;;;;8.64;81.47;101791.38;4958126;28;20153;-71
2022/04/20 01:46:54;;;;;;;17.85;8.65;;;;;;;8.63;81.60;101797.44;4958356;28;20078;-70
2022/04/20 01:49:23;;;;;;;15.55;8.25;;;;;;;8.57;81.59;101794.59;4954849;28;20058;-71
2022/04/20 01:51:59;;;;;;;16.73;8.45;;;;;;;8.55;82.01;101791.03;4954797;28;20084;-71
2022/04/20 01:54:29;;;;;;;16.58;8.75;;;;;;;8.57;81.88;101786.75;4952239;28;20115;-70
2022/04/20 01:56:57;;;;;;;16.70;7.38;;;;;;;8.50;81.93;101779.53;4956770;28;20062;-76
2022/04/20 01:59:27;;;;;;;22.08;9.63;;;;;;;8.49;81.86;101790.81;4964601;28;20063;-70
2022/04/20 02:04:49;;;;;;;15.45;7.47;;;;;;;8.35;82.63;101787.69;4961091;28;20575;-71
2022/04/20 02:07:31;;;;;;;;;;;;;;;8.38;82.81;101786.94;4957810;28;20089;-70
2022/04/20 02:10:00;;;;;;;15.23;8.25;;;;;;;8.28;82.86;101793.53;4963469;28;19926;-76
2022/04/20 02:12:29;;;;;;;19.27;9.35;;;;;;;8.27;82.87;101793.47;4965459;28;20192;-78
2022/04/20 02:15:00;;;;;;;17.45;8.98;;;;;;;8.23;83.12;101784.63;4968223;28;20050;-77
2022/04/20 02:17:28;;;;;;;15.80;8.00;;;;;;;8.20;83.00;101787.13;4964081;28;20042;-77
2022/04/20 02:19:58;;;;;;;19.48;8.38;;;;;;;8.20;83.03;101788.00;4961684;28;20066;-77
2022/04/20 02:22:27;;;;;;;16.25;7.93;;;;;;;8.18;83.08;101786.19;4964393;28;20066;-77
2022/04/20 02:24:59;;;;;;;16.27;8.50;;;;;;;8.14;82.96;101784.28;4961417;28;20062;-77
2022/04/20 02:27:29;;;;;;;17.00;7.82;;;;;;;8.09;83.09;101778.88;4970528;28;20082;-79
2022/04/20 02:29:58;;;;;;;17.77;7.57;;;;;;;8.04;83.78;101784.75;4973154;28;20098;-77
2022/04/20 02:32:27;;;;;;;13.93;7.85;;;;;;;8.03;83.36;101778.63;4961347;28;20050;-71
2022/04/20 02:34:59;;;;;;;19.77;8.68;;;;;;;8.03;83.33;101778.63;4958093;28;20055;-71
2022/04/20 02:37:27;;;;;;;16.25;8.70;;;;;;;7.97;83.47;101783.63;4959117;28;20050;-70
2022/04/20 02:39:56;;;;;;;15.27;8.57;;;;;;;7.99;83.17;101781.97;4958253;28;20065;-71
2022/04/20 02:42:29;;;;;;;16.88;8.43;;;;;;;8.00;83.12;101773.28;4955727;28;20043;-71
2022/04/20 02:44:58;;;;;;;15.00;7.45;;;;;;;8.00;83.30;101788.97;4960613;28;20058;-71
2022/04/20 02:47:27;;;;;;;15.15;8.40;;;;;;;7.88;83.44;101783.28;4959210;28;20051;-72
2022/04/20 02:50:01;;;;;;;13.82;7.75;;;;;;;7.90;83.02;101784.22;4959060;28;20063;-71
2022/04/20 02:52:29;;;;;;;19.17;8.95;;;;;;;7.85;83.54;101784.03;4955826;28;20106;-72
2022/04/20 02:54:57;;;;;;;20.33;8.35;;;;;;;7.76;83.57;101781.06;4958673;28;20164;-77
2022/04/20 02:57:26;;;;;;;16.05;7.90;;;;;;;7.80;83.42;101785.56;4959517;28;20123;-78
2022/04/20 02:59:56;;;;;;;14.68;7.57;;;;;;;7.73;83.17;101788.78;4960658;28;20066;-78
2022/04/20 03:02:25;;;;;;;18.00;8.13;;;;;;;7.69;83.63;101796.44;4961577;28;20058;-76
2022/04/20 03:04:56;;;;;;;15.60;7.50;;;;;;;7.64;83.78;101795.34;4955995;28;20492;-78
2022/04/20 03:07:28;;;;;;;15.65;7.07;;;;;;;7.68;83.53;101802.47;4962096;28;20133;-75
2022/04/20 03:09:56;;;;;;;15.32;7.60;;;;;;;7.63;83.43;101801.41;4963628;28;20059;-77
2022/04/20 03:12:25;;;;;;;14.35;7.28;;;;;;;7.63;83.56;101806.63;4960281;28;20122;-77
2022/04/20 03:14:54;;;;;;;15.55;7.70;;;;;;;7.55;83.30;101814.13;4962239;28;20566;-77
2022/04/20 03:17:26;;;;;;;13.55;6.80;;;;;;;7.49;83.33;101811.28;4953942;28;20059;-70
2022/04/20 03:19:56;;;;;;;14.98;7.57;;;;;;;7.45;83.42;101801.53;4954367;28;20126;-70
2022/04/20 03:22:25;;;;;;;18.05;8.27;;;;;;;7.40;83.66;101808.28;4962895;28;20558;-71
2022/04/20 03:24:54;;;;;;;15.55;7.10;;;;;;;7.35;83.77;101800.28;4960439;28;20083;-77
2022/04/20 03:27:23;;;;;;;14.80;7.60;;;;;;;7.34;83.37;101801.09;4959136;28;20137;-79
2022/04/20 03:29:53;;;;;;;13.68;7.60;;;;;;;7.33;83.68;101806.25;4956670;28;20134;-76
2022/04/20 03:32:22;;;;;;;15.90;7.78;;;;;;;7.28;83.45;101813.03;4954912;28;20050;-70
2022/04/20 03:34:59;;;;;;;18.50;7.78;;;;;;;7.25;83.71;101807.69;4953521;28;20130;-70
2022/04/20 03:37:28;;;;;;;13.82;7.35;;;;;;;7.24;83.69;101809.41;4956370;28;20058;-70
2022/04/20 03:39:57;;;;;;;12.98;7.07;;;;;;;7.21;83.30;101806.66;4953731;28;20054;-70
2022/04/20 03:42:26;;;;;;;12.77;7.53;;;;;;;7.19;83.26;101813.53;4959293;28;20058;-71
2022/04/20 03:45:00;;;;;;;14.02;7.50;;;;;;;7.19;83.00;101809.22;4955239;28;20384;-78
2022/04/20 03:47:28;;;;;;;15.60;7.93;;;;;;;7.17;82.83;101809.97;4958941;28;20078;-78
2022/04/20 03:49:58;;;;;;;12.57;7.55;;;;;;;7.15;82.23;101816.84;4957864;28;20118;-78
2022/04/20 03:52:30;;;;;;;15.05;7.18;;;;;;;7.15;82.21;101822.06;4960984;28;20146;-71
2022/04/20 03:54:58;;;;;;;12.85;6.72;;;;;;;7.15;82.10;101814.22;4954464;28;20496;-71
2022/04/20 03:57:26;;;;;;;14.60;7.55;;;;;;;7.15;81.63;101827.28;4953087;28;20117;-70
2022/04/20 03:59:59;;;;;;;12.55;6.50;;;;;;;7.10;81.82;101823.56;4957127;28;20487;-71
2022/04/20 04:02:27;;;;;;;15.53;7.33;;;;;;;7.05;81.84;101825.09;4958408;28;20051;-77
2022/04/20 04:05:00;;;;;;;12.63;6.75;;;;;;;7.02;82.02;101830.19;4962286;28;20055;-70
2022/04/20 04:07:31;;;;;;;14.05;7.43;;;;;;;6.98;82.09;101828.25;4960001;28;20093;-71
2022/04/20 04:09:59;;;;;;;14.55;7.13;;;;;;;6.98;82.11;101825.66;4959564;28;20126;-77
2022/04/20 04:12:28;;;;;;;13.70;6.70;;;;;;;6.94;82.25;101821.13;4961903;28;20061;-78
2022/04/20 04:14:56;;;;;;;13.65;7.63;;;;;;;6.91;82.30;101829.72;4958395;28;20498;-70
2022/04/20 04:17:24;;;;;;;13.98;7.45;;;;;;;6.88;82.50;101822.66;4955286;28;20110;-72
2022/04/20 04:19:52;;;;;;;12.60;6.45;;;;;;;6.88;82.83;101826.97;4957360;28;20055;-71
2022/04/20 04:22:30;;;;;;;13.80;6.88;;;;;;;6.81;82.19;101831.03;4956430;28;20043;-70
2022/04/20 04:24:58;;;;;;;13.02;6.40;;;;;;;6.75;82.60;101830.75;4958021;28;20554;-69
2022/04/20 04:27:27;;;;;;;15.27;7.13;;;;;;;6.72;82.72;101835.81;4958617;28;20463;-70
2022/04/20 04:29:56;;;;;;;12.55;6.65;;;;;;;6.77;82.38;101825.59;4956701;28;20107;-70
2022/04/20 04:32:26;;;;;;;14.50;7.30;;;;;;;6.70;82.51;101829.66;4955348;28;20047;-70
2022/04/20 04:34:54;;;;;;;15.80;7.88;;;;;;;6.67;82.35;101831.22;4955106;28;20106;-70
2022/04/20 04:37:26;;;;;;;13.20;6.50;;;;;;;6.67;82.58;101832.13;4952042;28;20058;-71
2022/04/20 04:40:03;;;;;;;11.73;6.63;;;;;;;6.63;82.66;101838.03;4956725;28;20420;-71
2022/04/20 04:42:32;;;;;;;13.23;6.97;;;;;;;6.63;82.39;101835.41;4956875;28;20051;-71
2022/04/20 04:48:36;;;;;;;13.02;6.68;;;;;;;6.62;82.53;101838.84;4957587;28;20492;-77
2022/04/20 04:50:38;;;;;;;12.85;6.22;;;;;;;6.60;82.54;101845.69;4961168;28;20063;-79
2022/04/20 04:53:09;;;;;;;12.80;6.43;;;;;;;6.55;82.56;101844.59;4953854;28;20114;-77
2022/04/20 04:55:39;;;;;;;12.88;6.05;;;;;;;6.56;82.44;101854.22;4957098;28;20055;-77
2022/04/20 04:58:08;;;;;;;13.77;6.93;;;;;;;6.54;82.61;101856.75;4960381;28;20583;-77
2022/04/20 05:00:36;;;;;;;12.40;6.40;;;;;;;6.52;82.47;101852.28;4959875;28;20058;-77
2022/04/20 05:03:04;;;;;;;11.32;6.00;;;;;;;6.54;82.55;101866.28;4961570;28;20143;-77
2022/04/20 05:05:33;;;;;;;12.13;6.03;;;;;;;6.55;82.36;101862.84;4956629;28;20042;-70
2022/04/20 05:08:01;;;;;;;13.05;6.93;;;;;;;6.53;82.55;101868.00;4961250;28;20086;-70
2022/04/20 05:10:29;;;;;;;12.30;5.97;;;;;;;6.58;82.36;101860.38;4959407;28;20047;-71
2022/04/20 05:13:00;;;;;;;11.45;6.22;;;;;;;6.61;82.25;101863.13;4956427;28;20055;-70
2022/04/20 05:15:28;;;;;;;13.13;6.75;;;;;;;6.64;82.09;101858.06;4950655;28;20491;-70
2022/04/20 05:17:57;;;;;;;15.13;6.80;;;;;;;6.67;81.76;101852.97;4957139;28;20054;-70
2022/04/20 05:20:32;;;;;;;13.52;6.28;;;;;;;6.73;81.21;101861.06;4956194;28;20082;-71
2022/04/20 05:23:02;;;;;;;12.07;6.38;;;;;;;6.81;81.22;101867.53;4962862;28;20130;-70
2022/04/20 05:25:30;;;;;;;13.20;6.60;;;;;;;6.95;80.40;101869.84;4959513;28;20066;-76
2022/04/20 05:28:02;;;;;;;13.55;6.63;;;;;;;7.04;79.66;101865.03;4965445;28;20118;-77
2022/04/20 05:30:30;;;;;;;11.40;5.93;;;;;;;7.17;79.12;101867.38;4968143;28;20086;-78
2022/04/20 05:32:59;;;;;;;10.98;5.82;;;;;;;7.35;77.88;101868.13;4969772;28;20110;-78
2022/04/20 05:35:27;;;;;;;13.98;6.03;;;;;;;7.52;76.23;101874.06;4976350;28;20105;-78
2022/04/20 05:43:29;;;;;;;10.40;5.70;;;;;;;8.06;72.18;101872.81;4959510;28;20054;-70
2022/04/20 05:46:01;;;;;;;13.38;5.57;;;;;;;8.22;71.82;101869.09;4960621;28;20051;-71
2022/04/20 05:48:29;;;;;;;13.65;6.50;;;;;;;8.44;70.55;101874.31;4958276;28;20144;-71
2022/04/20 05:50:59;;;;;;;11.98;6.50;;;;;;;8.62;69.39;101866.28;4960130;28;20046;-72
2022/04/20 05:53:27;;;;;;;11.65;6.07;;;;;;;8.82;69.02;101869.63;4954920;28;20121;-71
2022/04/20 05:55:56;;;;;;;12.68;6.03;;;;;;;8.97;67.61;101864.06;4961180;28;20089;-71
2022/04/20 05:58:29;;;;;;;11.45;6.10;;;;;;;9.07;66.87;101867.06;4959704;28;20054;-72
2022/04/20 06:00:58;;;;;;;11.63;5.95;;;;;;;9.31;66.49;101867.03;4960579;28;20046;-71
2022/04/20 06:03:26;;;;;;;12.15;5.97;;;;;;;9.45;65.54;101870.97;4955687;28;20054;-71
2022/04/20 06:06:02;;;;;;;10.82;5.93;;;;;;;9.58;64.00;101871.41;4956224;28;20055;-71
2022/04/20 06:08:30;;;;;;;12.18;6.07;;;;;;;9.79;63.63;101873.00;4958805;28;20054;-71
2022/04/20 06:10:59;;;;;;;11.10;5.43;;;;;;;9.98;62.52;101871.88;4961115;28;20081;-71
2022/04/20 06:13:29;;;;;;;11.45;6.03;;;;;;;10.19;62.09;101879.53;4957169;28;20066;-71
2022/04/20 06:15:58;;;;;;;10.48;5.63;;;;;;;10.19;60.37;101869.03;4958116;28;20062;-70
2022/04/20 06:18:26;;;;;;;9.90;5.13;;;;;;;10.31;60.44;101877.31;4959932;28;20311;-71
2022/04/20 06:20:58;;;;;;;11.57;6.15;;;;;;;10.46;59.99;101877.75;4960370;28;20099;-72
2022/04/20 06:23:27;;;;;;;13.77;6.00;;;;;;;10.52;59.10;101874.44;4960824;28;20063;-71
2022/04/20 06:25:56;;;;;;;10.32;6.05;;;;;;;10.68;58.18;101878.41;4963638;28;20059;-72
2022/04/20 06:28:26;;;;;;;10.13;5.40;;;;;;;10.88;57.94;101872.00;4967104;28;20050;-78
2022/04/20 06:30:58;;;;;;;12.55;5.43;;;;;;;10.99;57.85;101875.81;4968199;28;20039;-79
2022/04/20 06:33:26;;;;;;;11.45;5.50;;;;;;;11.08;56.34;101872.56;4958012;28;20301;-78
2022/04/20 06:35:54;;;;;;;10.13;5.35;;;;;;;11.43;56.25;101879.63;4958138;28;20051;-71
2022/04/20 06:38:32;;;;;;;9.90;5.15;;;;;;;11.39;55.31;101874.25;4956249;28;20062;-71
2022/04/20 06:41:00;;;;;;;13.43;5.43;;;;;;;11.67;54.86;101875.84;4958619;28;20488;-78
2022/04/20 06:43:33;;;;;;;11.15;5.68;;;;;;;11.69;53.50;101874.13;4958661;28;20284;-72
2022/04/20 06:46:03;;;;;;;11.15;5.18;;;;;;;11.82;54.04;101878.88;4955079;28;20708;-71
2022/04/20 06:48:31;;;;;;;10.73;5.38;;;;;;;11.78;53.45;101884.91;4960772;28;20114;-72
2022/04/20 06:50:59;;;;;;;11.10;5.47;;;;;;;11.93;53.12;101882.66;4964317;28;20048;-79
2022/04/20 06:59:00;;;;;;;9.77;5.15;;;;;;;12.36;52.39;101875.78;4960885;28;20051;-71
2022/04/20 07:01:30;;;;;;;11.18;4.95;;;;;;;12.38;51.40;101868.81;4958766;28;20051;-72
2022/04/20 07:03:59;;;;;;;10.95;5.00;;;;;;;12.33;50.82;101875.72;4960543;28;20223;-72
2022/04/20 07:06:28;;;;;;;11.13;5.63;;;;;;;12.40;51.50;101877.63;4957081;28;20055;-73
2022/04/20 07:08:57;;;;;;;11.40;5.05;;;;;;;12.48;51.69;101881.28;4955130;28;20432;-71
2022/04/20 07:11:28;;;;;;;12.23;5.60;;;;;;;12.83;50.40;101873.25;4958570;28;20047;-73
2022/04/20 07:13:56;;;;;;;8.82;5.18;;;;;;;12.85;50.52;101882.06;4956458;28;20063;-73
2022/04/20 07:16:28;;;;;;;10.13;5.20;;;;;;;13.28;50.35;101887.34;4960830;28;20086;-72
2022/04/20 07:18:58;;;;;;;12.05;5.13;;;;;;;13.19;49.50;101881.03;4959235;28;20094;-72
2022/04/20 07:21:27;;;;;;;11.27;5.63;;;;;;;13.26;48.76;101888.19;4958737;28;20117;-72
2022/04/20 07:23:57;;;;;;;11.18;5.05;;;;;;;13.28;48.86;101892.63;4962784;28;20066;-72
2022/04/20 07:26:54;;;;;;;11.57;5.35;;;;;;;13.25;49.01;101889.94;4951191;28;20142;-73
2022/04/20 07:34:32;;;;;;;9.30;4.75;;;;;;;13.74;48.18;101889.03;4955720;28;20136;-74
2022/04/20 07:37:21;;;;;;;12.88;5.80;;;;;;;13.84;47.55;101882.16;4940186;28;20572;-77
2022/04/20 07:43:22;;;;;;;10.32;5.05;;;;;;;14.24;46.73;101888.94;4957714;28;20539;-76
2022/04/20 07:45:51;;;;;;;10.98;5.35;;;;;;;14.52;47.04;101879.72;4968689;28;20050;-78
2022/04/20 07:48:26;;;;;;;12.23;5.10;;;;;;;14.42;46.48;101877.81;4957367;28;20122;-76
2022/04/20 07:50:55;;;;;;;11.25;5.00;;;;;;;14.76;45.53;101879.13;4957611;28;20600;-77
2022/04/20 07:53:27;;;;;;;9.57;4.80;;;;;;;14.79;45.50;101883.56;4957724;28;20946;-79
2022/04/20 07:55:58;;;;;;;8.68;4.60;;;;;;;14.59;45.54;101885.94;4961734;28;20443;-77
2022/04/20 07:58:26;;;;;;;9.85;4.97;;;;;;;14.83;45.45;101888.00;4961285;28;20085;-78
2022/04/20 08:00:58;;;;;;;8.68;4.90;;;;;;;15.02;44.87;101882.97;4956281;28;20059;-79
2022/04/20 08:03:26;;;;;;;9.02;4.68;;;;;;;15.24;44.75;101884.09;4954703;28;20059;-78
2022/04/20 08:05:56;;;;;;;9.85;5.05;;;;;;;15.10;44.68;101885.69;4962444;28;20058;-77
2022/04/20 08:08:26;;;;;;;11.10;4.82;;;;;;;15.04;44.32;101889.16;4959930;28;20047;-80
2022/04/20 08:10:54;;;;;;;10.13;4.57;;;;;;;15.25;44.10;101883.22;4968331;28;20688;-81
2022/04/20 08:16:08;;;;;;;9.13;4.72;;;;;;;15.53;43.93;101880.84;4972232;28;20051;-81
2022/04/20 08:18:38;;;;;;;9.02;5.20;;;;;;;15.74;44.32;101880.16;4956126;28;20105;-74
2022/04/20 08:21:08;;;;;;;10.35;5.55;;;;;;;15.92;44.25;101886.50;4956612;28;20047;-75
2022/04/20 08:23:37;;;;;;;9.55;5.38;;;;;;;15.85;44.67;101881.16;4963410;28;20111;-80
2022/04/20 08:26:07;;;;;;;9.43;4.97;;;;;;;16.38;43.24;101884.19;4973686;28;20074;-81
2022/04/20 08:28:35;;;;;;;8.55;4.95;;;;;;;15.91;42.25;101891.78;4970839;28;20053;-80
2022/04/20 08:31:04;;;;;;;9.15;4.82;;;;;;;16.29;41.50;101889.41;4966121;28;20105;-80
2022/04/20 08:33:34;;;;;;;11.02;5.15;;;;;;;15.96;41.56;101887.41;4968285;28;20051;-79
2022/04/20 08:36:02;;;;;;;9.63;4.90;;;;;;;16.41;41.85;101891.25;4969395;28;20043;-82
2022/04/20 08:38:31;;;;;;;12.55;4.57;;;;;;;16.29;42.29;101894.72;4978987;28;20059;-79
2022/04/20 08:41:02;;;;;;;11.02;5.60;;;;;;;16.29;42.31;101897.34;4970077;28;20055;-75
2022/04/20 08:43:32;;;;;;;11.50;5.35;;;;;;;16.16;42.49;101892.84;4951784;28;20093;-74
2022/04/20 08:46:01;;;;;;;9.95;5.30;;;;;;;16.58;42.74;101892.22;4955637;28;20051;-74
2022/04/20 08:48:31;;;;;;;8.52;4.75;;;;;;;16.59;41.48;101891.34;4960661;28;20057;-77
2022/04/20 08:51:04;;;;;;;7.53;4.60;;;;;;;16.68;41.83;101892.28;4959237;28;20066;-75
2022/04/20 08:53:35;;;;;;;9.68;5.22;;;;;;;16.48;41.08;101887.75;4954916;28;20055;-75
2022/04/20 08:59:00;;;;;;;10.43;5.22;;;;;;;16.80;40.40;101887.94;4957070;28;20055;-74
2022/04/20 09:01:29;;;;;;;8.38;4.40;;;;;;;16.85;39.87;101886.19;4960849;28;21130;-74
2022/04/20 09:04:01;;;;;;;9.25;4.93;;;;;;;16.74;40.17;101888.78;4960625;28;21053;-75
2022/04/20 09:06:30;;;;;;;8.60;5.28;;;;;;;16.81;39.82;101890.59;4969316;28;20065;-74
2022/04/20 09:08:58;;;;;;;9.30;5.55;;;;;;;17.04;41.13;101890.69;4965461;28;20078;-74
2022/04/20 09:11:32;;;;;;;11.10;5.28;;;;;;;17.37;41.33;101889.00;4968948;28;20059;-76
2022/04/20 09:14:13;;;;;;;9.90;5.33;;;;;;;17.63;40.91;101885.50;4970708;28;20070;-80
2022/04/20 09:16:41;;;;;;;10.75;5.60;;;;;;;17.85;39.44;101882.84;4988570;28;20473;-80
2022/04/20 09:19:28;;;;;;;11.70;5.20;;;;;;;17.51;40.33;101879.28;4975178;28;20054;-78
2022/04/20 09:21:59;;;;;;;10.95;5.30;;;;;;;17.50;40.08;101877.53;4976869;28;20060;-80
2022/04/20 09:24:28;;;;;;;10.27;5.28;;;;;;;17.76;39.77;101872.25;4973066;28;20047;-75
2022/04/20 09:26:59;;;;;;;9.70;4.78;;;;;;;17.79;39.72;101870.47;4974253;28;20063;-81
2022/04/20 09:29:27;;;;;;;9.32;4.88;;;;;;;17.38;39.53;101880.16;4975046;28;20126;-80
2022/04/20 09:31:58;;;;;;;9.48;4.82;;;;;;;17.60;39.35;101877.53;4976584;28;20054;-80
2022/04/20 09:34:34;;;;;;;7.07;4.90;;;;;;;17.66;40.99;101873.16;4972264;28;20042;-80
2022/04/20 09:37:26;;;;;;;9.70;4.43;;;;;;;17.54;40.74;101879.31;4968060;28;20051;-81
2022/04/20 09:40:01;;;;;;;8.82;4.88;;;;;;;17.46;40.98;101875.75;4966866;28;20062;-80
2022/04/20 09:42:31;;;;;;;9.90;4.97;;;;;;;17.63;40.25;101869.59;4973042;28;20035;-80
2022/04/20 09:45:01;;;;;;;9.00;4.28;;;;;;;17.86;39.28;101869.59;4967002;28;20082;-74
2022/04/20 09:50:23;;;;;;;9.27;4.32;;;;;;;17.54;39.32;101869.56;4966712;28;20042;-80
2022/04/20 09:52:59;;;;;;;8.30;4.40;;;;;;;17.69;39.23;101862.50;4955867;28;20105;-74
2022/04/20 09:55:30;;;;;;;8.05;4.20;;;;;;;17.69;38.72;101863.41;4967481;28;20363;-74
2022/04/20 09:58:17;;;;;;;6.30;3.97;;;;;;;17.63;38.51;101861.63;4958408;28;20058;-76
2022/04/20 10:00:54;;;;;;;9.05;4.07;;;;;;;17.74;38.89;101869.59;4957600;28;20044;-74
2022/04/20 10:03:27;;;;;;;10.60;4.55;;;;;;;17.60;38.09;101855.44;4957446;28;20500;-75
2022/04/20 10:06:33;;;;;;;9.18;4.22;;;;;;;17.70;38.52;101851.91;4961799;28;20054;-74
2022/04/20 10:09:03;;;;;;;7.22;4.20;;;;;;;17.56;38.20;101841.28;4965486;28;20066;-74
2022/04/20 10:11:33;;;;;;;11.23;3.88;;;;;;;17.91;37.35;101859.84;4960768;28;20063;-75
2022/04/20 10:16:57;;;;;;;9.93;4.68;;;;;;;18.00;38.01;101844.81;4954052;28;20125;-79
2022/04/20 10:19:27;;;;;;;;;;;;;;;17.91;37.96;101845.69;4963849;28;20275;-80
2022/04/20 10:21:58;;;;;;;7.35;3.63;;;;;;;18.14;37.40;101843.91;4957624;28;19940;-79
2022/04/20 10:24:30;;;;;;;7.75;4.40;;;;;;;18.18;37.94;101844.78;4960535;28;20054;-75
2022/04/20 10:27:07;;;;;;;6.25;3.55;;;;;;;18.12;36.43;101845.69;4961630;28;20055;-75
2022/04/20 10:29:49;;;;;;;7.13;3.58;;;;;;;18.04;35.69;101844.81;4965678;28;20054;-79
2022/04/20 10:32:25;;;;;;;6.88;3.40;;;;;;;17.96;36.57;101842.16;4967176;28;20183;-80
2022/04/20 10:34:56;;;;;;;6.65;3.50;;;;;;;18.25;36.45;101838.56;4960348;28;20614;-78
2022/04/20 10:37:28;;;;;;;7.85;3.53;;;;;;;18.01;36.46;101839.50;4970283;28;20050;-79
2022/04/20 10:40:16;;;;;;;7.93;3.75;;;;;;;18.21;36.93;101831.50;4965862;28;20503;-78
2022/04/20 10:43:23;;;;;;;7.72;3.97;;;;;;;18.05;36.42;101832.41;4965699;28;20101;-80
2022/04/20 10:46:08;;;;;;;7.68;3.50;;;;;;;18.38;35.88;101826.13;4957557;28;20051;-79
2022/04/20 10:49:02;;;;;;;6.85;3.58;;;;;;;17.86;36.64;101834.22;4958236;28;20049;-75
2022/04/20 10:51:41;;;;;;;6.22;3.33;;;;;;;17.87;36.72;101828.91;4961158;28;20059;-74
2022/04/20 10:54:29;;;;;;;6.97;3.47;;;;;;;18.23;36.28;101825.28;4961940;28;20130;-75
2022/04/20 10:57:12;;;;;;;5.90;3.50;;;;;;;18.27;36.21;101812.91;4960185;28;20046;-79
2022/04/20 10:59:41;;;;;;;6.75;3.90;;;;;;;18.14;36.33;101811.16;4958258;28;20061;-78
2022/04/20 11:02:15;;;;;;;8.90;4.05;;;;;;;18.01;36.46;101814.72;4962255;28;20077;-76
2022/04/20 11:04:46;;;;;;;5.93;3.45;;;;;;;17.96;36.69;101809.44;4958833;28;20047;-79
2022/04/20 11:07:27;;;;;;;6.35;3.20;;;;;;;18.65;36.09;101798.63;4958524;28;20472;-78
2022/04/20 11:10:08;;;;;;;8.25;4.13;;;;;;;18.77;35.81;101799.41;4959704;28;20057;-78
2022/04/20 11:19:08;;;;;;;7.40;3.83;;;;;;;18.39;35.59;101794.25;4956093;28;20162;-74
2022/04/20 11:21:54;;;;;;;7.05;4.05;;;;;;;18.51;36.64;101783.59;4955442;28;20283;-75
2022/04/20 11:24:37;;;;;;;8.50;3.65;;;;;;;18.38;36.54;101789.84;4959649;28;20054;-75
2022/04/20 11:27:18;;;;;;;7.35;3.75;;;;;;;18.83;35.92;101786.09;4967716;28;20147;-74
2022/04/20 11:29:49;;;;;;;9.70;4.53;;;;;;;18.70;36.05;101780.88;4959288;28;20072;-75
2022/04/20 11:32:31;;;;;;;10.52;4.15;;;;;;;18.76;36.62;101778.16;4961093;28;20053;-74
2022/04/20 11:42:18;;;;;;;9.32;3.83;;;;;;;18.73;35.71;101767.53;4965939;28;20487;-79
2022/04/20 11:55:34;;;;;;;7.13;3.80;;;;;;;18.52;35.98;101753.47;4955978;28;20582;-73
2022/04/20 11:59:01;;;;;;;6.45;3.67;;;;;;;18.83;36.22;101751.53;4960194;28;20145;-73
2022/04/20 12:05:36;;;;;;;6.93;4.07;;;;;;;18.80;36.83;101742.69;4958450;28;20054;-73
2022/04/20 12:08:25;;;;;;;6.40;3.58;;;;;;;19.03;36.40;101740.78;4960415;28;20131;-73
2022/04/20 12:19:12;;;;;;;7.50;3.22;;;;;;;19.20;36.20;101736.22;4959578;28;20067;-73
2022/04/20 12:22:04;;;;;;;6.72;3.58;;;;;;;19.11;36.83;101725.66;4963310;28;20415;-77
2022/04/20 12:24:32;;;;;;;6.55;3.60;;;;;;;19.54;36.50;101738.59;4975427;28;20262;-79
2022/04/20 12:27:01;;;;;;;7.32;3.60;;;;;;;19.38;35.43;101707.69;4969053;28;20057;-79
2022/04/20 12:29:33;;;;;;;7.22;3.60;;;;;;;19.10;36.33;101725.66;4972233;28;20043;-77
2022/04/20 12:32:02;;;;;;;7.43;3.60;;;;;;;19.24;35.77;101716.66;4969438;28;20113;-79
2022/04/20 12:34:31;;;;;;;6.47;2.80;;;;;;;19.13;36.42;101717.66;4972563;28;20051;-78
2022/04/20 12:37:03;;;;;;;7.18;3.45;;;;;;;19.65;36.06;101707.47;4966769;28;20287;-78
2022/04/20 12:39:34;;;;;;;5.88;3.20;;;;;;;19.61;36.05;101720.81;4972919;28;20539;-79
2022/04/20 12:42:06;;;;;;;7.22;3.22;;;;;;;19.19;36.02;101706.97;4968054;28;20067;-79
2022/04/20 12:44:36;;;;;;;7.50;2.97;;;;;;;19.48;36.98;101704.06;4973688;28;20118;-79
2022/04/20 12:47:35;;;;;;;7.63;3.50;;;;;;;19.08;36.20;101711.50;4970708;28;20059;-79
2022/04/20 12:50:22;;;;;;;6.82;3.50;;;;;;;19.42;36.08;101712.97;4969597;28;20062;-80
2022/04/20 12:52:59;;;;;;;6.00;3.20;;;;;;;19.29;35.91;101708.66;4965152;28;20121;-80
2022/04/20 13:02:06;;;;;;;7.40;2.90;;;;;;;19.34;36.28;101696.19;4969697;28;20042;-81
2022/04/20 13:04:49;;;;;;;8.65;3.58;;;;;;;19.26;36.72;101690.94;4985454;28;20039;-82
2022/04/20 13:07:21;;;;;;;9.57;3.38;;;;;;;19.06;36.64;101679.59;4972250;28;20059;-81